Time;durP1;ratioP1;P1;durP2;ratioP2;P2;SDS_P1;SDS_P2;PMS_P1;PMS_P2;Temp;Humidity;BMP_temperature;BMP_pressure;BME280_temperature;BME280_humidity;BME280_pressure;Samples;Min_cycle;Max_cycle;Signal;HPM_P1;HPM_P2
2021/10/05 00:01:00;;;;;;;22.40;17.63;;;12.30;99.90;;;;;;4918132;29;20083;-72
2021/10/05 00:03:25;;;;;;;21.67;17.23;;;12.40;99.90;;;;;;4918255;29;20043;-73
2021/10/05 00:05:51;;;;;;;26.80;18.08;;;12.40;99.90;;;;;;4917180;29;20032;-70
2021/10/05 00:08:17;;;;;;;25.35;17.92;;;12.40;99.90;;;;;;4917997;29;20115;-71
2021/10/05 00:10:43;;;;;;;31.60;20.02;;;12.40;99.90;;;;;;4918011;29;20096;-70
2021/10/05 00:13:09;;;;;;;29.80;20.27;;;12.60;99.90;;;;;;4916661;29;20024;-71
2021/10/05 00:15:36;;;;;;;35.00;22.25;;;12.60;99.90;;;;;;4916899;29;20388;-72
2021/10/05 00:18:02;;;;;;;38.25;22.30;;;12.70;99.90;;;;;;4917910;29;20483;-73
2021/10/05 00:20:28;;;;;;;37.15;19.70;;;12.70;99.90;;;;;;4917742;29;20032;-71
2021/10/05 00:22:54;;;;;;;26.48;17.70;;;12.60;99.90;;;;;;4917818;29;20501;-71
2021/10/05 00:25:20;;;;;;;24.77;17.55;;;12.50;99.90;;;;;;4917179;29;20020;-71
2021/10/05 00:27:45;;;;;;;24.52;18.13;;;12.50;99.90;;;;;;4917560;29;20029;-71
2021/10/05 00:30:11;;;;;;;28.02;19.63;;;12.50;99.90;;;;;;4917486;29;20024;-70
2021/10/05 00:32:37;;;;;;;27.15;19.08;;;12.40;99.90;;;;;;4917793;29;20498;-71
2021/10/05 00:35:04;;;;;;;31.17;21.13;;;12.40;99.90;;;;;;4917351;29;20466;-71
2021/10/05 00:37:30;;;;;;;34.88;21.65;;;12.50;99.90;;;;;;4917601;29;20039;-71
2021/10/05 00:39:56;;;;;;;40.53;23.60;;;12.60;99.90;;;;;;4917465;29;20024;-71
2021/10/05 00:42:22;;;;;;;38.78;22.13;;;12.70;99.90;;;;;;4917386;29;20032;-71
2021/10/05 00:44:49;;;;;;;40.28;23.02;;;12.60;99.90;;;;;;4916764;29;20486;-71
2021/10/05 00:47:15;;;;;;;34.65;20.60;;;12.70;99.90;;;;;;4917122;29;20059;-71
2021/10/05 00:49:43;;;;;;;33.85;21.30;;;12.60;99.90;;;;;;4917496;29;20036;-71
2021/10/05 00:52:11;;;;;;;43.13;24.55;;;12.60;99.90;;;;;;4917408;29;20020;-71
2021/10/05 00:54:38;;;;;;;30.27;19.55;;;12.60;99.90;;;;;;4916692;29;20036;-71
2021/10/05 00:57:05;;;;;;;36.42;22.30;;;12.50;99.90;;;;;;4917145;29;20032;-71
2021/10/05 00:59:33;;;;;;;30.50;21.30;;;12.50;99.90;;;;;;4917584;29;20036;-72
2021/10/05 01:02:05;;;;;;;31.58;20.85;;;12.40;99.90;;;;;;4916947;29;20490;-71
2021/10/05 01:04:30;;;;;;;32.15;21.45;;;12.40;99.90;;;;;;4915747;29;20036;-71
2021/10/05 01:07:06;;;;;;;32.75;22.30;;;12.30;99.90;;;;;;4917936;29;20055;-71
2021/10/05 01:09:32;;;;;;;28.35;20.90;;;12.30;99.90;;;;;;4917219;29;20481;-72
2021/10/05 01:11:58;;;;;;;29.85;20.75;;;12.30;99.90;;;;;;4916823;29;20040;-71
2021/10/05 01:14:24;;;;;;;25.83;19.98;;;12.20;99.90;;;;;;4916277;29;20047;-71
2021/10/05 01:16:52;;;;;;;26.60;19.05;;;12.20;99.90;;;;;;4930696;29;20032;-70
2021/10/05 01:19:18;;;;;;;26.85;19.33;;;12.20;99.90;;;;;;4917115;29;20039;-70
2021/10/05 01:21:44;;;;;;;27.15;20.30;;;12.20;99.90;;;;;;4917001;29;20032;-72
2021/10/05 01:24:15;;;;;;;24.88;18.25;;;12.20;99.90;;;;;;4916574;29;20024;-72
2021/10/05 01:26:41;;;;;;;25.85;18.00;;;12.20;99.90;;;;;;4916415;29;20522;-71
2021/10/05 01:29:09;;;;;;;25.35;19.10;;;12.30;99.90;;;;;;4916533;29;20530;-71
2021/10/05 01:31:41;;;;;;;23.67;18.42;;;12.20;99.90;;;;;;4916664;29;20039;-71
2021/10/05 01:34:07;;;;;;;23.63;19.00;;;12.20;99.90;;;;;;4916713;29;20028;-71
2021/10/05 01:36:36;;;;;;;24.25;18.15;;;12.10;99.90;;;;;;4915722;29;20036;-71
2021/10/05 01:39:18;;;;;;;24.60;19.40;;;12.20;99.90;;;;;;4916310;29;20032;-71
2021/10/05 01:41:44;;;;;;;27.13;19.08;;;12.20;99.90;;;;;;4930993;29;20028;-72
2021/10/05 01:44:10;;;;;;;29.52;20.25;;;12.30;99.90;;;;;;4916319;29;20039;-71
2021/10/05 01:46:35;;;;;;;25.92;18.50;;;12.40;99.90;;;;;;4915489;29;20085;-72
2021/10/05 01:49:01;;;;;;;38.20;21.80;;;12.30;99.90;;;;;;4916082;29;20471;-72
2021/10/05 01:51:26;;;;;;;31.98;19.83;;;12.50;99.90;;;;;;4916209;29;20039;-72
2021/10/05 01:53:52;;;;;;;31.45;20.15;;;12.50;99.90;;;;;;4916269;29;20040;-72
2021/10/05 01:56:18;;;;;;;27.77;19.90;;;12.40;99.90;;;;;;4915496;29;20103;-71
2021/10/05 01:58:43;;;;;;;33.08;21.02;;;12.40;99.90;;;;;;4914979;29;20582;-73
2021/10/05 02:01:09;;;;;;;35.42;23.10;;;12.50;99.90;;;;;;4915602;29;20107;-71
2021/10/05 02:03:35;;;;;;;35.35;22.30;;;12.40;99.90;;;;;;4915869;29;20028;-72
2021/10/05 02:06:01;;;;;;;37.85;23.58;;;12.50;99.90;;;;;;4915070;29;20036;-71
2021/10/05 02:08:27;;;;;;;42.67;25.33;;;12.70;99.90;;;;;;4915919;29;20035;-72
2021/10/05 02:10:52;;;;;;;48.10;26.38;;;12.60;99.90;;;;;;4916194;29;20063;-71
2021/10/05 02:13:18;;;;;;;46.80;25.83;;;12.70;99.90;;;;;;4915964;29;20055;-72
2021/10/05 02:15:44;;;;;;;49.97;26.10;;;12.80;99.90;;;;;;4914922;29;20039;-71
2021/10/05 02:18:09;;;;;;;51.28;27.30;;;12.70;99.90;;;;;;4915615;29;20107;-71
2021/10/05 02:20:35;;;;;;;41.85;24.58;;;12.70;99.90;;;;;;4915688;29;20443;-71
2021/10/05 02:23:01;;;;;;;42.78;23.85;;;12.60;99.90;;;;;;4915668;29;20480;-72
2021/10/05 02:25:27;;;;;;;40.97;23.92;;;12.50;99.90;;;;;;4913326;29;20106;-72
2021/10/05 02:27:53;;;;;;;38.78;23.35;;;12.50;99.90;;;;;;4915024;29;20529;-71
2021/10/05 02:30:18;;;;;;;29.85;21.63;;;12.40;99.90;;;;;;4915214;29;20073;-70
2021/10/05 02:32:45;;;;;;;39.95;23.52;;;12.40;99.90;;;;;;4915484;29;20154;-71
2021/10/05 02:35:12;;;;;;;35.40;21.52;;;12.50;99.90;;;;;;4915128;29;20107;-71
2021/10/05 02:37:38;;;;;;;33.45;22.60;;;12.50;99.90;;;;;;4918425;29;20040;-71
2021/10/05 02:40:07;;;;;;;33.55;22.15;;;12.50;99.90;;;;;;4916711;29;20470;-71
2021/10/05 02:42:34;;;;;;;32.67;21.75;;;12.40;99.90;;;;;;4917811;29;20123;-72
2021/10/05 02:45:00;;;;;;;34.30;23.27;;;12.40;99.90;;;;;;4914839;29;20066;-71
2021/10/05 02:47:26;;;;;;;33.97;21.83;;;12.40;99.90;;;;;;4915086;29;20043;-71
2021/10/05 02:49:52;;;;;;;32.92;21.38;;;12.50;99.90;;;;;;4915344;29;20028;-71
2021/10/05 02:52:20;;;;;;;28.75;20.77;;;12.40;99.90;;;;;;4915299;29;20066;-70
2021/10/05 02:54:47;;;;;;;26.63;19.38;;;12.30;99.90;;;;;;4914696;29;20095;-71
2021/10/05 02:57:17;;;;;;;28.20;20.55;;;12.20;99.90;;;;;;4915358;29;20127;-70
2021/10/05 02:59:43;;;;;;;23.63;18.65;;;12.20;99.90;;;;;;4915317;29;20024;-70
2021/10/05 03:02:10;;;;;;;24.77;19.50;;;12.10;99.90;;;;;;4914853;29;20398;-72
2021/10/05 03:04:37;;;;;;;25.58;19.73;;;12.00;99.90;;;;;;4914437;29;20091;-72
2021/10/05 03:07:03;;;;;;;25.40;18.95;;;11.90;99.90;;;;;;4929904;23;20684;-76
2021/10/05 03:09:28;;;;;;;27.23;21.10;;;11.90;99.90;;;;;;4897196;29;20083;-75
2021/10/05 03:11:54;;;;;;;32.95;21.92;;;12.10;99.90;;;;;;4897592;29;20044;-76
2021/10/05 03:14:20;;;;;;;30.75;21.25;;;12.20;99.90;;;;;;4912454;29;20063;-77
2021/10/05 03:16:46;;;;;;;30.95;20.55;;;12.20;99.90;;;;;;4898112;29;20032;-76
2021/10/05 03:19:12;;;;;;;32.30;20.33;;;12.20;99.90;;;;;;4896517;29;20153;-76
2021/10/05 03:21:39;;;;;;;32.60;20.73;;;12.20;99.90;;;;;;4896034;29;20040;-76
2021/10/05 03:24:05;;;;;;;30.02;18.75;;;12.20;99.90;;;;;;4911371;29;20160;-75
2021/10/05 03:26:30;;;;;;;28.23;19.27;;;12.20;99.90;;;;;;4896083;29;20021;-76
2021/10/05 03:28:56;;;;;;;34.72;18.92;;;12.30;99.90;;;;;;4896380;29;20087;-75
2021/10/05 03:31:22;;;;;;;29.10;18.83;;;12.30;99.90;;;;;;4896339;29;20032;-76
2021/10/05 03:33:48;;;;;;;31.40;18.60;;;12.40;99.90;;;;;;4897504;29;20029;-76
2021/10/05 03:36:15;;;;;;;31.30;19.05;;;12.50;99.90;;;;;;4895646;29;20456;-75
2021/10/05 03:38:41;;;;;;;26.95;16.95;;;12.50;99.90;;;;;;4896017;29;20070;-76
2021/10/05 03:41:09;;;;;;;24.60;16.35;;;12.40;99.90;;;;;;4898927;29;20097;-75
2021/10/05 03:43:35;;;;;;;19.55;13.15;;;12.40;99.90;;;;;;4899795;29;20080;-75
2021/10/05 03:46:01;;;;;;;17.58;11.73;;;12.20;99.90;;;;;;4899317;29;20037;-76
2021/10/05 03:48:27;;;;;;;15.43;12.68;;;12.10;99.90;;;;;;4899888;29;20044;-75
2021/10/05 03:50:53;;;;;;;13.13;10.55;;;12.00;99.90;;;;;;4900941;29;20032;-75
2021/10/05 03:53:20;;;;;;;14.10;10.88;;;12.00;99.90;;;;;;4900588;29;20030;-75
2021/10/05 03:55:54;;;;;;;19.45;11.75;;;12.00;99.90;;;;;;4899641;29;20056;-75
2021/10/05 03:58:21;;;;;;;13.23;10.63;;;12.10;99.90;;;;;;4899682;29;20112;-75
2021/10/05 04:00:47;;;;;;;14.48;11.05;;;12.10;99.90;;;;;;4899813;29;20029;-76
2021/10/05 04:03:14;;;;;;;24.45;16.88;;;12.10;99.90;;;;;;4899885;29;20395;-75
2021/10/05 04:05:40;;;;;;;20.67;14.90;;;12.20;99.90;;;;;;4899001;29;20025;-75
2021/10/05 04:08:06;;;;;;;20.30;14.70;;;12.10;99.90;;;;;;4899146;29;20487;-75
2021/10/05 04:10:32;;;;;;;22.35;15.93;;;12.10;99.90;;;;;;4899686;29;20048;-75
2021/10/05 04:12:58;;;;;;;23.58;15.45;;;12.20;99.90;;;;;;4914082;29;20024;-75
2021/10/05 04:15:23;;;;;;;21.60;14.68;;;12.30;99.90;;;;;;4897827;29;20039;-76
2021/10/05 04:17:49;;;;;;;20.95;12.93;;;12.40;99.90;;;;;;4900689;29;20028;-77
2021/10/05 04:20:15;;;;;;;15.27;10.48;;;12.50;99.90;;;;;;4905545;29;20055;-77
2021/10/05 04:22:41;;;;;;;15.15;10.35;;;12.40;99.90;;;;;;4902847;29;20476;-77
2021/10/05 04:25:08;;;;;;;13.77;9.13;;;12.20;99.90;;;;;;4899082;29;20036;-76
2021/10/05 04:27:34;;;;;;;11.60;8.35;;;12.10;99.90;;;;;;4897909;29;20052;-77
2021/10/05 04:30:01;;;;;;;11.48;8.40;;;12.00;99.90;;;;;;4900967;29;20613;-77
2021/10/05 04:32:27;;;;;;;11.88;8.60;;;12.00;99.90;;;;;;4902580;29;20028;-76
2021/10/05 04:34:52;;;;;;;11.10;9.18;;;12.00;99.90;;;;;;4901418;29;20112;-76
2021/10/05 04:37:18;;;;;;;11.25;8.77;;;12.10;99.90;;;;;;4905090;29;20072;-78
2021/10/05 04:39:44;;;;;;;13.30;9.23;;;12.10;99.90;;;;;;4900976;29;20069;-82
2021/10/05 04:42:09;;;;;;;15.13;9.45;;;12.20;99.90;;;;;;4903945;29;20565;-82
2021/10/05 04:44:35;;;;;;;16.63;10.52;;;12.30;99.90;;;;;;4900826;29;20033;-82
2021/10/05 04:47:02;;;;;;;18.05;11.02;;;12.30;99.90;;;;;;4904940;29;20028;-81
2021/10/05 04:49:28;;;;;;;20.95;11.15;;;12.50;99.90;;;;;;4903794;29;20084;-83
2021/10/05 04:51:54;;;;;;;26.50;11.57;;;12.50;99.90;;;;;;4896455;29;20033;-83
2021/10/05 04:54:20;;;;;;;16.85;9.93;;;12.50;99.90;;;;;;4898549;29;20060;-82
2021/10/05 04:56:45;;;;;;;13.02;9.20;;;12.30;99.90;;;;;;4899906;29;20080;-81
2021/10/05 04:59:11;;;;;;;12.18;7.90;;;12.10;99.90;;;;;;4899360;29;20040;-82
2021/10/05 05:01:37;;;;;;;14.00;8.55;;;11.90;99.90;;;;;;4900438;29;20391;-83
2021/10/05 05:04:03;;;;;;;14.93;10.27;;;12.00;99.90;;;;;;4901707;29;20028;-83
2021/10/05 05:06:29;;;;;;;16.08;9.70;;;12.20;99.90;;;;;;4906378;29;20036;-80
2021/10/05 05:08:54;;;;;;;18.73;9.75;;;12.20;99.90;;;;;;4901870;29;20057;-83
2021/10/05 05:11:20;;;;;;;17.67;9.45;;;12.30;99.90;;;;;;4903087;29;20028;-81
2021/10/05 05:13:46;;;;;;;16.30;10.13;;;12.40;99.90;;;;;;4905366;29;20028;-82
2021/10/05 05:16:12;;;;;;;22.23;10.95;;;12.40;99.90;;;;;;4901430;29;20132;-82
2021/10/05 05:18:38;;;;;;;26.90;11.90;;;12.40;99.90;;;;;;4902719;29;20095;-82
2021/10/05 05:21:03;;;;;;;35.00;17.63;;;12.40;99.90;;;;;;4915414;29;20021;-81
2021/10/05 05:23:29;;;;;;;28.80;16.25;;;12.40;99.90;;;;;;4914678;29;20071;-81
2021/10/05 05:25:55;;;;;;;28.70;16.02;;;12.40;99.90;;;;;;4901967;29;20021;-81
2021/10/05 05:28:20;;;;;;;31.92;17.30;;;12.40;99.90;;;;;;4900950;29;20124;-81
2021/10/05 05:30:46;;;;;;;33.13;16.83;;;12.30;99.90;;;;;;4899303;29;20032;-84
2021/10/05 05:33:12;;;;;;;20.77;14.68;;;12.30;99.90;;;;;;4901230;29;20036;-83
2021/10/05 05:35:38;;;;;;;18.02;13.05;;;12.20;99.90;;;;;;4899725;29;20108;-84
2021/10/05 05:38:03;;;;;;;16.88;12.63;;;12.10;99.90;;;;;;4900854;29;20120;-83
2021/10/05 05:40:29;;;;;;;17.67;13.27;;;11.90;99.90;;;;;;4899918;29;20102;-82
2021/10/05 05:42:55;;;;;;;17.95;13.50;;;12.00;99.90;;;;;;4901597;29;20032;-82
2021/10/05 05:45:21;;;;;;;17.17;12.30;;;12.00;99.90;;;;;;4900646;29;20028;-81
2021/10/05 05:47:46;;;;;;;15.18;12.00;;;11.90;99.90;;;;;;4903746;29;20103;-83
2021/10/05 05:50:12;;;;;;;16.23;11.93;;;11.80;99.90;;;;;;4898451;29;20039;-82
2021/10/05 05:52:38;;;;;;;18.17;12.65;;;11.80;99.90;;;;;;4899780;29;20040;-82
2021/10/05 05:55:05;;;;;;;13.98;11.00;;;11.80;99.90;;;;;;4901749;29;20035;-81
2021/10/05 05:57:30;;;;;;;18.92;13.50;;;11.90;99.90;;;;;;4915380;29;20047;-83
2021/10/05 05:59:58;;;;;;;19.48;13.20;;;11.90;99.90;;;;;;4898101;29;20119;-81
2021/10/05 06:02:23;;;;;;;17.27;11.82;;;11.80;99.90;;;;;;4902690;29;20055;-81
2021/10/05 06:04:49;;;;;;;22.80;13.95;;;11.90;99.90;;;;;;4902839;29;20025;-82
2021/10/05 06:07:15;;;;;;;19.38;13.40;;;12.10;99.90;;;;;;4903724;29;20029;-81
2021/10/05 06:09:41;;;;;;;20.63;13.75;;;12.20;99.90;;;;;;4901364;29;20047;-82
2021/10/05 06:12:10;;;;;;;25.42;15.15;;;12.20;99.90;;;;;;4900352;29;20045;-83
2021/10/05 06:14:36;;;;;;;30.25;15.82;;;12.50;99.90;;;;;;4900492;29;20020;-81
2021/10/05 06:17:04;;;;;;;24.30;13.85;;;12.50;99.90;;;;;;4899032;29;20383;-82
2021/10/05 06:19:30;;;;;;;20.77;14.10;;;12.50;99.90;;;;;;4897753;29;20427;-76
2021/10/05 06:21:56;;;;;;;18.88;13.27;;;12.40;99.90;;;;;;4896901;29;20554;-76
2021/10/05 06:24:21;;;;;;;19.60;13.43;;;12.20;99.90;;;;;;4897892;29;20103;-76
2021/10/05 06:26:47;;;;;;;15.80;12.55;;;12.10;99.90;;;;;;4912573;29;20476;-77
2021/10/05 06:29:13;;;;;;;17.95;12.93;;;12.10;99.90;;;;;;4898311;29;20028;-77
2021/10/05 06:31:39;;;;;;;17.02;12.27;;;12.00;99.90;;;;;;4899358;29;20032;-77
2021/10/05 06:34:04;;;;;;;16.95;12.63;;;11.90;99.90;;;;;;4901639;29;20056;-77
2021/10/05 06:36:30;;;;;;;15.43;11.50;;;11.90;99.90;;;;;;4918326;29;20021;-76
2021/10/05 06:38:56;;;;;;;14.27;11.43;;;11.90;99.90;;;;;;4916919;29;20032;-77
2021/10/05 06:41:22;;;;;;;14.27;11.13;;;11.90;99.90;;;;;;4900136;29;20100;-77
2021/10/05 06:43:48;;;;;;;14.00;11.30;;;11.80;99.90;;;;;;4900214;29;20072;-77
2021/10/05 06:46:14;;;;;;;14.15;9.88;;;11.80;99.90;;;;;;4913885;29;20025;-78
2021/10/05 06:48:39;;;;;;;14.13;10.82;;;12.00;99.90;;;;;;4902483;29;20025;-77
2021/10/05 06:51:05;;;;;;;14.35;11.30;;;12.10;99.90;;;;;;4898235;29;20032;-76
2021/10/05 06:53:31;;;;;;;11.00;8.23;;;12.10;99.90;;;;;;4897489;29;20028;-76
2021/10/05 06:55:57;;;;;;;9.60;8.43;;;12.00;99.90;;;;;;4896180;29;20052;-76
2021/10/05 06:58:23;;;;;;;12.43;9.35;;;12.20;99.90;;;;;;4898545;29;20043;-77
2021/10/05 07:00:49;;;;;;;10.32;9.15;;;12.20;99.90;;;;;;4897145;29;20116;-76
2021/10/05 07:03:14;;;;;;;10.52;8.32;;;12.40;99.90;;;;;;4896757;29;20032;-77
2021/10/05 07:05:40;;;;;;;8.23;7.32;;;12.30;99.90;;;;;;4896441;29;20073;-77
2021/10/05 07:08:08;;;;;;;11.25;8.57;;;12.20;99.90;;;;;;4895521;29;20037;-76
2021/10/05 07:10:35;;;;;;;8.75;6.78;;;12.30;99.90;;;;;;4897941;29;20040;-76
2021/10/05 07:13:01;;;;;;;7.97;6.68;;;12.40;99.90;;;;;;4896041;29;20033;-75
2021/10/05 07:15:27;;;;;;;10.15;8.65;;;12.40;99.90;;;;;;4898143;29;20058;-76
2021/10/05 07:17:54;;;;;;;12.00;9.65;;;12.50;99.90;;;;;;4900795;29;20024;-76
2021/10/05 07:20:20;;;;;;;11.52;9.80;;;12.70;99.90;;;;;;4900841;29;20025;-76
2021/10/05 07:22:46;;;;;;;11.90;9.20;;;12.70;99.90;;;;;;4898933;29;20037;-76
2021/10/05 07:25:11;;;;;;;10.02;8.70;;;12.80;99.90;;;;;;4899755;29;20361;-76
2021/10/05 07:27:37;;;;;;;10.00;7.75;;;12.90;99.90;;;;;;4900546;29;20028;-76
2021/10/05 07:30:06;;;;;;;10.77;7.90;;;12.90;99.90;;;;;;4900557;29;20021;-76
2021/10/05 07:32:32;;;;;;;17.27;7.07;;;13.10;99.90;;;;;;4899486;29;20043;-76
2021/10/05 07:34:59;;;;;;;8.68;6.90;;;13.00;99.90;;;;;;4899649;29;20104;-76
2021/10/05 07:37:25;;;;;;;9.85;7.07;;;13.10;99.90;;;;;;4901656;29;20163;-76
2021/10/05 07:39:51;;;;;;;8.48;6.72;;;13.20;99.90;;;;;;4900190;29;20037;-76
2021/10/05 07:42:20;;;;;;;11.82;6.97;;;13.20;99.90;;;;;;4900324;29;20032;-76
2021/10/05 07:44:49;;;;;;;7.53;6.78;;;13.10;99.90;;;;;;4899846;29;20025;-76
2021/10/05 07:47:15;;;;;;;8.48;6.22;;;12.80;99.90;;;;;;4900937;29;20025;-76
2021/10/05 07:49:41;;;;;;;7.93;6.07;;;13.00;99.90;;;;;;4900149;29;20051;-76
2021/10/05 07:52:06;;;;;;;6.18;5.15;;;13.20;99.90;;;;;;4898597;29;20060;-76
2021/10/05 07:54:32;;;;;;;5.93;4.47;;;13.50;99.90;;;;;;4899131;29;20412;-76
2021/10/05 07:56:58;;;;;;;4.60;4.20;;;13.60;99.90;;;;;;4898594;29;20032;-77
2021/10/05 07:59:24;;;;;;;3.97;3.67;;;13.80;99.90;;;;;;4898526;29;20032;-76
2021/10/05 08:01:50;;;;;;;3.35;3.15;;;13.90;99.90;;;;;;4899792;29;20033;-76
2021/10/05 08:04:18;;;;;;;3.30;3.00;;;14.00;99.90;;;;;;4899323;29;20440;-76
2021/10/05 08:06:44;;;;;;;9.43;3.10;;;14.00;99.90;;;;;;4900048;29;20088;-76
2021/10/05 08:09:12;;;;;;;2.80;2.60;;;14.00;99.90;;;;;;4900686;29;20441;-76
2021/10/05 08:11:38;;;;;;;3.03;2.70;;;13.90;99.90;;;;;;4898341;29;20037;-76
2021/10/05 08:14:04;;;;;;;2.85;2.65;;;13.80;99.90;;;;;;4914283;29;20031;-76
2021/10/05 08:16:32;;;;;;;3.45;3.15;;;13.80;99.90;;;;;;4898856;29;20543;-76
2021/10/05 08:18:59;;;;;;;3.63;3.33;;;13.60;99.90;;;;;;4899642;29;20115;-75
2021/10/05 08:21:25;;;;;;;3.55;3.25;;;13.70;99.90;;;;;;4914008;29;20413;-76
2021/10/05 08:23:53;;;;;;;3.10;2.80;;;13.90;99.90;;;;;;4900911;29;20025;-75
2021/10/05 08:26:20;;;;;;;3.13;2.92;;;13.80;99.90;;;;;;4913125;29;20068;-77
2021/10/05 08:28:46;;;;;;;3.00;2.80;;;13.60;99.90;;;;;;4902648;29;20031;-77
2021/10/05 08:31:12;;;;;;;3.38;3.08;;;13.70;99.90;;;;;;4900442;29;20025;-77
2021/10/05 08:33:38;;;;;;;3.20;2.95;;;13.70;99.90;;;;;;4899597;29;20021;-77
2021/10/05 08:36:04;;;;;;;2.13;2.03;;;13.80;99.90;;;;;;4899320;29;20035;-77
2021/10/05 08:38:30;;;;;;;2.65;2.45;;;13.60;99.90;;;;;;4900496;29;20028;-76
2021/10/05 08:40:56;;;;;;;3.83;2.30;;;13.70;99.90;;;;;;4899840;29;20025;-76
2021/10/05 08:43:23;;;;;;;3.22;3.00;;;13.90;99.90;;;;;;4899842;29;20096;-76
2021/10/05 08:45:49;;;;;;;3.50;2.92;;;13.80;99.90;;;;;;4913587;29;20028;-77
2021/10/05 08:48:15;;;;;;;13.85;12.52;;;13.90;99.90;;;;;;4899277;29;20025;-76
2021/10/05 08:50:41;;;;;;;2.85;2.40;;;14.20;99.90;;;;;;4898042;29;20123;-76
2021/10/05 08:53:07;;;;;;;2.55;2.35;;;14.10;99.90;;;;;;4913190;29;20508;-77
2021/10/05 08:55:33;;;;;;;2.33;2.13;;;14.20;99.90;;;;;;4898416;29;20036;-77
2021/10/05 08:57:59;;;;;;;1.90;1.70;;;14.60;99.90;;;;;;4900084;29;20391;-76
2021/10/05 09:00:30;;;;;;;2.13;2.03;;;14.70;99.90;;;;;;4897636;29;20040;-76
2021/10/05 09:02:56;;;;;;;3.95;2.72;;;14.50;99.90;;;;;;4897872;29;20036;-76
2021/10/05 09:05:22;;;;;;;3.05;2.13;;;14.80;99.90;;;;;;4896316;29;20076;-76
2021/10/05 09:07:51;;;;;;;2.58;2.38;;;15.30;99.90;;;;;;4930292;23;20045;-71
2021/10/05 09:10:19;;;;;;;3.60;2.63;;;15.40;99.90;;;;;;4898232;29;20107;-70
2021/10/05 09:12:46;;;;;;;2.97;2.72;;;15.90;99.90;;;;;;4898048;29;20036;-72
2021/10/05 09:15:14;;;;;;;3.50;3.20;;;16.50;99.90;;;;;;4897314;29;20119;-70
2021/10/05 09:17:40;;;;;;;4.07;3.72;;;16.70;99.90;;;;;;4898175;29;20029;-72
2021/10/05 09:20:24;;;;;;;5.60;4.25;;;17.20;99.90;;;;;;4898072;29;20076;-71
2021/10/05 09:23:05;;;;;;;3.90;3.60;;;17.40;99.90;;;;;;4897798;29;20029;-71
2021/10/05 09:25:34;;;;;;;3.70;3.40;;;15.70;99.90;;;;;;4897400;29;20040;-71
2021/10/05 09:28:01;;;;;;;3.65;3.35;;;15.40;99.90;;;;;;4900070;29;20029;-71
2021/10/05 09:30:28;;;;;;;4.35;3.95;;;15.50;99.90;;;;;;4899556;29;20021;-71
2021/10/05 09:32:58;;;;;;;3.95;3.65;;;15.40;99.90;;;;;;4898175;29;20055;-71
2021/10/05 09:35:24;;;;;;;4.55;4.15;;;15.30;99.90;;;;;;4897311;29;20033;-71
2021/10/05 09:37:50;;;;;;;4.25;3.85;;;15.30;99.90;;;;;;4906458;29;20042;-71
2021/10/05 09:40:16;;;;;;;5.28;4.85;;;15.00;99.90;;;;;;4916797;29;20056;-72
2021/10/05 09:42:47;;;;;;;4.50;4.10;;;14.90;99.90;;;;;;4917156;29;20083;-72
2021/10/05 09:45:14;;;;;;;4.00;3.70;;;15.30;99.90;;;;;;4916708;29;20024;-70
2021/10/05 09:47:46;;;;;;;3.60;3.30;;;15.50;99.90;;;;;;4917420;29;20047;-72
2021/10/05 09:50:28;;;;;;;3.08;2.80;;;15.50;99.90;;;;;;4917365;29;20024;-72
2021/10/05 09:52:58;;;;;;;3.88;3.45;;;15.50;99.90;;;;;;4916562;29;20038;-73
2021/10/05 09:55:30;;;;;;;2.33;2.13;;;15.80;99.90;;;;;;4916117;29;20435;-72
2021/10/05 09:57:56;;;;;;;7.90;2.90;;;16.50;99.90;;;;;;4916031;29;20098;-72
2021/10/05 10:00:24;;;;;;;3.92;2.20;;;17.00;99.90;;;;;;4916013;29;20036;-72
2021/10/05 10:02:51;;;;;;;1.92;1.83;;;17.10;99.90;;;;;;4915852;29;20028;-72
2021/10/05 10:05:21;;;;;;;1.73;1.63;;;17.10;99.90;;;;;;4915392;29;20033;-71
2021/10/05 10:07:50;;;;;;;2.33;2.13;;;16.30;99.90;;;;;;4915831;29;20548;-72
2021/10/05 10:10:21;;;;;;;2.08;1.77;;;16.10;99.90;;;;;;4915716;29;20024;-72
2021/10/05 10:12:50;;;;;;;1.20;1.20;;;16.20;99.90;;;;;;4915910;29;20028;-72
2021/10/05 10:15:17;;;;;;;1.10;1.00;;;16.40;99.90;;;;;;4915024;29;20028;-72
2021/10/05 10:17:43;;;;;;;1.20;1.10;;;16.30;99.90;;;;;;4915778;29;20024;-72
2021/10/05 10:20:29;;;;;;;1.30;1.20;;;16.20;99.90;;;;;;4915870;29;20024;-71
2021/10/05 10:22:55;;;;;;;1.60;1.20;;;16.10;99.90;;;;;;4915235;29;20047;-71
2021/10/05 10:25:27;;;;;;;1.75;1.25;;;16.50;99.90;;;;;;4915105;29;20025;-71
2021/10/05 10:27:58;;;;;;;1.20;1.08;;;16.80;99.90;;;;;;4915560;29;20020;-71
2021/10/05 10:30:26;;;;;;;1.27;0.95;;;16.20;99.90;;;;;;4915609;29;20368;-72
2021/10/05 10:32:58;;;;;;;1.20;1.05;;;16.30;99.90;;;;;;4915942;29;20060;-72
2021/10/05 10:35:24;;;;;;;0.73;0.70;;;16.10;99.90;;;;;;4914990;29;20210;-72
2021/10/05 10:37:52;;;;;;;0.80;0.80;;;16.30;99.90;;;;;;4915045;29;20036;-70
2021/10/05 10:40:31;;;;;;;0.50;0.50;;;16.50;99.90;;;;;;4914029;29;20032;-71
2021/10/05 10:42:57;;;;;;;0.82;0.60;;;16.20;99.90;;;;;;4915577;29;20111;-72
2021/10/05 10:45:23;;;;;;;2.00;1.00;;;16.00;99.90;;;;;;4914937;29;20515;-72
2021/10/05 10:47:57;;;;;;;1.02;0.95;;;16.20;99.90;;;;;;4915489;29;20020;-72
2021/10/05 10:50:34;;;;;;;0.60;0.60;;;16.40;99.90;;;;;;4914877;29;20029;-71
2021/10/05 10:53:06;;;;;;;1.15;0.75;;;16.20;99.90;;;;;;4915133;29;20036;-71
2021/10/05 10:55:34;;;;;;;0.68;0.68;;;16.00;99.90;;;;;;4915008;29;20028;-70
2021/10/05 10:58:00;;;;;;;0.98;0.82;;;16.20;99.90;;;;;;4915491;29;20028;-73
2021/10/05 11:00:29;;;;;;;0.68;0.68;;;16.40;99.90;;;;;;4914870;29;20028;-72
2021/10/05 11:02:57;;;;;;;0.77;0.77;;;16.30;99.90;;;;;;4917818;29;20028;-70
2021/10/05 11:05:25;;;;;;;1.02;0.50;;;16.00;99.90;;;;;;4917113;29;20020;-70
2021/10/05 11:07:52;;;;;;;0.77;0.77;;;16.00;99.90;;;;;;4917477;29;20063;-71
2021/10/05 11:10:31;;;;;;;0.95;0.60;;;16.10;99.90;;;;;;4915958;29;20565;-71
2021/10/05 11:12:59;;;;;;;1.95;0.60;;;15.80;99.90;;;;;;4916928;29;20040;-71
2021/10/05 11:15:32;;;;;;;0.47;0.47;;;16.10;99.90;;;;;;4915218;29;20028;-71
2021/10/05 11:18:14;;;;;;;1.83;1.38;;;16.50;99.90;;;;;;4913835;29;20111;-72
2021/10/05 11:20:57;;;;;;;0.52;0.52;;;16.10;99.90;;;;;;4914232;29;20028;-71
2021/10/05 11:23:25;;;;;;;0.60;0.60;;;16.10;99.90;;;;;;4915048;29;20091;-71
2021/10/05 11:25:54;;;;;;;0.80;0.80;;;16.10;99.90;;;;;;4913769;29;20028;-71
2021/10/05 11:28:23;;;;;;;0.95;0.80;;;15.80;99.90;;;;;;4914891;29;20024;-71
2021/10/05 11:30:51;;;;;;;2.13;0.80;;;15.50;99.90;;;;;;4915118;29;20024;-70
2021/10/05 11:33:24;;;;;;;1.73;0.93;;;15.60;99.90;;;;;;4915151;29;20059;-72
2021/10/05 11:35:50;;;;;;;2.22;1.02;;;15.30;99.90;;;;;;4914484;29;20344;-70
2021/10/05 11:38:16;;;;;;;1.20;0.88;;;15.40;99.90;;;;;;4901154;29;20028;-70
2021/10/05 11:40:57;;;;;;;2.63;0.80;;;15.70;99.90;;;;;;4895962;29;20551;-71
2021/10/05 11:43:40;;;;;;;1.45;0.80;;;15.90;99.90;;;;;;4896350;29;20111;-71
2021/10/05 11:46:14;;;;;;;2.58;1.02;;;16.20;99.90;;;;;;4895876;29;20028;-71
2021/10/05 11:48:54;;;;;;;2.30;0.90;;;16.30;99.90;;;;;;4895967;29;20345;-70
2021/10/05 11:51:21;;;;;;;1.73;1.10;;;16.10;99.90;;;;;;4896175;29;20455;-70
2021/10/05 11:53:48;;;;;;;1.35;0.90;;;16.10;99.90;;;;;;4897838;29;20029;-71
2021/10/05 11:56:20;;;;;;;0.70;0.70;;;16.50;99.90;;;;;;4896342;29;20029;-71
2021/10/05 11:58:58;;;;;;;1.42;0.70;;;16.60;99.90;;;;;;4898361;29;20376;-71
2021/10/05 12:01:27;;;;;;;0.90;0.90;;;16.80;99.90;;;;;;4902763;29;20474;-70
2021/10/05 12:03:58;;;;;;;1.35;1.00;;;16.80;99.90;;;;;;4919484;29;20032;-70
2021/10/05 12:06:32;;;;;;;0.88;0.88;;;16.80;99.90;;;;;;4905960;29;20029;-71
2021/10/05 12:08:58;;;;;;;0.80;0.60;;;16.50;99.90;;;;;;4920287;29;20056;-71
2021/10/05 12:12:01;;;;;;;2.85;0.95;;;16.50;99.90;;;;;;4922325;29;20035;-71
2021/10/05 12:14:31;;;;;;;3.33;0.70;;;16.30;99.90;;;;;;4906980;29;20032;-73
2021/10/05 12:17:00;;;;;;;1.95;0.60;;;16.20;99.90;;;;;;4918761;29;20487;-71
2021/10/05 12:19:28;;;;;;;0.50;0.50;;;16.50;99.90;;;;;;4918940;29;20044;-70
2021/10/05 12:21:57;;;;;;;1.20;0.70;;;16.70;99.90;;;;;;4919162;29;20514;-71
2021/10/05 12:24:42;;;;;;;2.05;0.88;;;16.70;99.90;;;;;;4918198;29;20495;-71
2021/10/05 12:27:09;;;;;;;1.42;0.60;;;16.70;99.90;;;;;;4918769;29;20088;-72
2021/10/05 12:29:58;;;;;;;0.50;0.50;;;16.30;99.90;;;;;;4919736;29;20501;-71
2021/10/05 12:32:33;;;;;;;0.60;0.60;;;16.00;99.90;;;;;;4918996;29;20032;-70
2021/10/05 12:34:59;;;;;;;0.55;0.55;;;15.90;99.90;;;;;;4917942;29;20028;-71
2021/10/05 12:37:32;;;;;;;0.68;0.68;;;15.80;99.90;;;;;;4918205;29;20024;-71